Portada
METAR-TAF:

METAR-TAF

Aeropuertos :

Dubái, Emiratos Árabes Unidos

Aeropuerto Internacional de Dubái

latitud: 25-15-10N, longitud: 055-21-52E, altitud: 8 m

Observación

El informe se hizo hace 38 minutos, a las 22:00 UTC
Viento 4 kt del este-noreste, variando entre norte-noroeste y este-sureste
Temperatura 36°C
Humedad 45%
Presión 996 hPa
Visibilidad: 8000 m

METAR: OMDB 222200Z 07004KT 340V110 8000 NSC 36/22 Q0996 NOSIG

Hora: 02:38 (22:38 UTC)

Pronóstico

El informe se hizo hace 5 horas y 48 minutos, a las 16:50 UTC
Pronóstico válido del 22 a las 18 UTC al 24 a las 00 UTC
Viento 5 kt del este-noreste
Visibilidad: 8000 m
Evolucionando progresivamente
del 23 a las 07 UTC al 23 a las 09 UTC
Viento 12 kt del noroeste
Evolucionando progresivamente
del 23 a las 16 UTC al 23 a las 18 UTC
Viento 5 kt del este-noreste

TAF: OMDB 221650Z 2218/2400 06005KT 8000 NSC BECMG 2307/2309 31012KT BECMG 2316/2318 06005KT

Observaciones y pronósticos meteorológicos de más de 4000 aeropuertos (mensajes METAR y TAF).

Los puntos amarillos y rojos representan las estaciones disponibles.

Ponga el ratón en el punto deseado para ver el nombre de la estación.

Haga clic para ver las observaciones y los pronósticos meteorológicos.

Para cambiar el mapa : haga clic en los botones verdes con una cruz de color negro para hacer un zoom, en el botón verde con un guión para alejar o en las flechas verdes para mapas adyacentes.


METAR-TAF: